sensor_id;sensor_type;location;lat;lon;timestamp;temperature;humidity
23685;DHT22;12020;51.384;6.908;2023-09-30T00:01:49;13.70;99.90
23685;DHT22;12020;51.384;6.908;2023-09-30T00:04:19;13.70;99.90
23685;DHT22;12020;51.384;6.908;2023-09-30T00:06:47;13.70;99.90
23685;DHT22;12020;51.384;6.908;2023-09-30T00:09:15;13.70;99.90
23685;DHT22;12020;51.384;6.908;2023-09-30T00:11:42;13.80;99.90
23685;DHT22;12020;51.384;6.908;2023-09-30T00:14:13;13.70;99.90
23685;DHT22;12020;51.384;6.908;2023-09-30T00:16:43;13.70;99.90
23685;DHT22;12020;51.384;6.908;2023-09-30T00:19:21;13.70;99.90
23685;DHT22;12020;51.384;6.908;2023-09-30T00:21:56;13.70;99.90
23685;DHT22;12020;51.384;6.908;2023-09-30T00:24:27;13.70;99.90
23685;DHT22;12020;51.384;6.908;2023-09-30T00:26:55;13.80;99.90
23685;DHT22;12020;51.384;6.908;2023-09-30T00:29:23;13.80;99.90
23685;DHT22;12020;51.384;6.908;2023-09-30T00:31:50;13.70;99.90
23685;DHT22;12020;51.384;6.908;2023-09-30T00:34:16;13.80;99.90
23685;DHT22;12020;51.384;6.908;2023-09-30T00:36:45;13.70;99.90
23685;DHT22;12020;51.384;6.908;2023-09-30T00:39:14;13.70;99.90
23685;DHT22;12020;51.384;6.908;2023-09-30T00:41:42;13.70;99.90
23685;DHT22;12020;51.384;6.908;2023-09-30T00:44:10;13.70;99.90
23685;DHT22;12020;51.384;6.908;2023-09-30T00:46:40;13.70;99.90
23685;DHT22;12020;51.384;6.908;2023-09-30T00:49:07;13.70;99.90
23685;DHT22;12020;51.384;6.908;2023-09-30T00:51:36;13.70;99.90
23685;DHT22;12020;51.384;6.908;2023-09-30T00:54:08;13.60;99.90
23685;DHT22;12020;51.384;6.908;2023-09-30T00:56:45;13.60;99.90
23685;DHT22;12020;51.384;6.908;2023-09-30T00:59:14;13.60;99.90
23685;DHT22;12020;51.384;6.908;2023-09-30T01:01:43;13.60;99.90
23685;DHT22;12020;51.384;6.908;2023-09-30T01:04:12;13.60;99.90
23685;DHT22;12020;51.384;6.908;2023-09-30T01:06:47;13.60;99.90
23685;DHT22;12020;51.384;6.908;2023-09-30T01:09:24;13.60;99.90
23685;DHT22;12020;51.384;6.908;2023-09-30T01:11:55;13.50;99.90
23685;DHT22;12020;51.384;6.908;2023-09-30T01:14:29;13.60;99.90
23685;DHT22;12020;51.384;6.908;2023-09-30T01:16:58;13.60;99.90
23685;DHT22;12020;51.384;6.908;2023-09-30T01:19:25;13.60;99.90
23685;DHT22;12020;51.384;6.908;2023-09-30T01:21:56;13.80;99.90
23685;DHT22;12020;51.384;6.908;2023-09-30T01:24:38;13.70;99.90
23685;DHT22;12020;51.384;6.908;2023-09-30T01:27:07;13.70;99.90
23685;DHT22;12020;51.384;6.908;2023-09-30T01:29:33;13.70;99.90
23685;DHT22;12020;51.384;6.908;2023-09-30T01:32:00;13.60;99.90
23685;DHT22;12020;51.384;6.908;2023-09-30T01:34:26;13.60;99.90
23685;DHT22;12020;51.384;6.908;2023-09-30T01:36:58;13.60;99.90
23685;DHT22;12020;51.384;6.908;2023-09-30T01:39:28;13.60;99.90
23685;DHT22;12020;51.384;6.908;2023-09-30T01:41:56;13.60;99.90
23685;DHT22;12020;51.384;6.908;2023-09-30T01:44:26;13.60;99.90
23685;DHT22;12020;51.384;6.908;2023-09-30T01:46:54;13.60;99.90
23685;DHT22;12020;51.384;6.908;2023-09-30T01:49:21;13.60;99.90
23685;DHT22;12020;51.384;6.908;2023-09-30T01:51:49;13.60;99.90
23685;DHT22;12020;51.384;6.908;2023-09-30T01:54:17;13.60;99.90
23685;DHT22;12020;51.384;6.908;2023-09-30T01:56:45;13.60;99.90
23685;DHT22;12020;51.384;6.908;2023-09-30T01:59:12;13.60;99.90
23685;DHT22;12020;51.384;6.908;2023-09-30T02:01:38;13.50;99.90
23685;DHT22;12020;51.384;6.908;2023-09-30T02:04:07;13.50;99.90
23685;DHT22;12020;51.384;6.908;2023-09-30T02:06:34;13.50;99.90
23685;DHT22;12020;51.384;6.908;2023-09-30T02:09:02;13.50;99.90
23685;DHT22;12020;51.384;6.908;2023-09-30T02:11:28;13.40;99.90
23685;DHT22;12020;51.384;6.908;2023-09-30T02:13:54;13.40;99.90
23685;DHT22;12020;51.384;6.908;2023-09-30T02:16:20;13.40;99.90
23685;DHT22;12020;51.384;6.908;2023-09-30T02:18:49;13.40;99.90
23685;DHT22;12020;51.384;6.908;2023-09-30T02:21:18;13.30;99.90
23685;DHT22;12020;51.384;6.908;2023-09-30T02:23:49;13.30;99.90
23685;DHT22;12020;51.384;6.908;2023-09-30T02:26:18;13.30;99.90
23685;DHT22;12020;51.384;6.908;2023-09-30T02:28:45;13.20;99.90
23685;DHT22;12020;51.384;6.908;2023-09-30T02:31:13;13.20;99.90
23685;DHT22;12020;51.384;6.908;2023-09-30T02:33:43;13.20;99.90
23685;DHT22;12020;51.384;6.908;2023-09-30T02:36:14;13.10;99.90
23685;DHT22;12020;51.384;6.908;2023-09-30T02:38:41;13.10;99.90
23685;DHT22;12020;51.384;6.908;2023-09-30T02:41:10;13.10;99.90
23685;DHT22;12020;51.384;6.908;2023-09-30T02:43:38;13.10;99.90
23685;DHT22;12020;51.384;6.908;2023-09-30T02:46:04;13.10;99.90
23685;DHT22;12020;51.384;6.908;2023-09-30T02:48:33;13.00;99.90
23685;DHT22;12020;51.384;6.908;2023-09-30T02:51:08;13.00;99.90
23685;DHT22;12020;51.384;6.908;2023-09-30T02:53:36;13.00;99.90
23685;DHT22;12020;51.384;6.908;2023-09-30T02:56:05;13.00;99.90
23685;DHT22;12020;51.384;6.908;2023-09-30T02:58:36;12.90;99.90
23685;DHT22;12020;51.384;6.908;2023-09-30T03:01:04;12.90;99.90
23685;DHT22;12020;51.384;6.908;2023-09-30T03:03:33;12.90;99.90
23685;DHT22;12020;51.384;6.908;2023-09-30T03:06:00;12.90;99.90
23685;DHT22;12020;51.384;6.908;2023-09-30T03:08:28;12.90;99.90
23685;DHT22;12020;51.384;6.908;2023-09-30T03:10:56;12.90;99.90
23685;DHT22;12020;51.384;6.908;2023-09-30T03:13:25;13.00;99.90
23685;DHT22;12020;51.384;6.908;2023-09-30T03:16:01;12.90;99.90
23685;DHT22;12020;51.384;6.908;2023-09-30T03:18:29;12.90;99.90
23685;DHT22;12020;51.384;6.908;2023-09-30T03:21:00;13.00;99.90
23685;DHT22;12020;51.384;6.908;2023-09-30T03:23:28;12.80;99.90
23685;DHT22;12020;51.384;6.908;2023-09-30T03:25:58;12.80;99.90
23685;DHT22;12020;51.384;6.908;2023-09-30T03:28:27;12.80;99.90
23685;DHT22;12020;51.384;6.908;2023-09-30T03:30:57;12.80;99.90
23685;DHT22;12020;51.384;6.908;2023-09-30T03:33:25;12.80;99.90
23685;DHT22;12020;51.384;6.908;2023-09-30T03:35:54;12.70;99.90
23685;DHT22;12020;51.384;6.908;2023-09-30T03:38:28;12.70;99.90
23685;DHT22;12020;51.384;6.908;2023-09-30T03:40:57;12.70;99.90
23685;DHT22;12020;51.384;6.908;2023-09-30T03:43:28;12.70;99.90
23685;DHT22;12020;51.384;6.908;2023-09-30T03:45:56;12.80;99.90
23685;DHT22;12020;51.384;6.908;2023-09-30T03:48:25;12.70;99.90
23685;DHT22;12020;51.384;6.908;2023-09-30T03:51:22;12.70;99.90
23685;DHT22;12020;51.384;6.908;2023-09-30T03:53:57;12.70;99.90
23685;DHT22;12020;51.384;6.908;2023-09-30T03:56:23;12.70;99.90
23685;DHT22;12020;51.384;6.908;2023-09-30T03:58:50;12.70;99.90
23685;DHT22;12020;51.384;6.908;2023-09-30T04:01:21;12.70;99.90
23685;DHT22;12020;51.384;6.908;2023-09-30T04:03:56;12.70;99.90
23685;DHT22;12020;51.384;6.908;2023-09-30T04:06:24;12.70;99.90
23685;DHT22;12020;51.384;6.908;2023-09-30T04:08:54;12.70;99.90
23685;DHT22;12020;51.384;6.908;2023-09-30T04:11:24;12.70;99.90
23685;DHT22;12020;51.384;6.908;2023-09-30T04:13:56;12.70;99.90
23685;DHT22;12020;51.384;6.908;2023-09-30T04:16:22;12.70;99.90
23685;DHT22;12020;51.384;6.908;2023-09-30T04:18:55;12.70;99.90
23685;DHT22;12020;51.384;6.908;2023-09-30T04:21:29;12.60;99.90
23685;DHT22;12020;51.384;6.908;2023-09-30T04:24:02;12.70;99.90
23685;DHT22;12020;51.384;6.908;2023-09-30T04:26:32;12.70;99.90
23685;DHT22;12020;51.384;6.908;2023-09-30T04:29:11;12.80;99.90
23685;DHT22;12020;51.384;6.908;2023-09-30T04:31:41;12.80;99.90
23685;DHT22;12020;51.384;6.908;2023-09-30T04:34:11;12.90;99.90
23685;DHT22;12020;51.384;6.908;2023-09-30T04:36:48;12.90;99.90
23685;DHT22;12020;51.384;6.908;2023-09-30T04:39:18;13.00;99.90
23685;DHT22;12020;51.384;6.908;2023-09-30T04:41:56;12.90;99.90
23685;DHT22;12020;51.384;6.908;2023-09-30T04:44:29;12.90;99.90
23685;DHT22;12020;51.384;6.908;2023-09-30T04:47:02;12.90;99.90
23685;DHT22;12020;51.384;6.908;2023-09-30T04:49:31;12.90;99.90
23685;DHT22;12020;51.384;6.908;2023-09-30T04:51:59;12.90;99.90
23685;DHT22;12020;51.384;6.908;2023-09-30T04:54:29;12.80;99.90
23685;DHT22;12020;51.384;6.908;2023-09-30T04:56:58;12.80;99.90
23685;DHT22;12020;51.384;6.908;2023-09-30T04:59:30;12.70;99.90
23685;DHT22;12020;51.384;6.908;2023-09-30T05:01:59;12.70;99.90
23685;DHT22;12020;51.384;6.908;2023-09-30T05:04:27;12.70;99.90
23685;DHT22;12020;51.384;6.908;2023-09-30T05:06:58;12.70;99.90
23685;DHT22;12020;51.384;6.908;2023-09-30T05:09:25;12.70;99.90
23685;DHT22;12020;51.384;6.908;2023-09-30T05:11:54;12.70;99.90
23685;DHT22;12020;51.384;6.908;2023-09-30T05:14:25;12.70;99.90
23685;DHT22;12020;51.384;6.908;2023-09-30T05:17:00;12.70;99.90
23685;DHT22;12020;51.384;6.908;2023-09-30T05:19:36;12.70;99.90
23685;DHT22;12020;51.384;6.908;2023-09-30T05:22:07;12.60;99.90
23685;DHT22;12020;51.384;6.908;2023-09-30T05:24:34;12.60;99.90
23685;DHT22;12020;51.384;6.908;2023-09-30T05:27:03;12.50;99.90
23685;DHT22;12020;51.384;6.908;2023-09-30T05:29:32;12.50;99.90
23685;DHT22;12020;51.384;6.908;2023-09-30T05:32:00;12.60;99.90
23685;DHT22;12020;51.384;6.908;2023-09-30T05:34:27;12.50;99.90
23685;DHT22;12020;51.384;6.908;2023-09-30T05:36:56;12.40;99.90
23685;DHT22;12020;51.384;6.908;2023-09-30T05:39:26;12.40;99.90
23685;DHT22;12020;51.384;6.908;2023-09-30T05:41:59;12.40;99.90
23685;DHT22;12020;51.384;6.908;2023-09-30T05:44:32;12.30;99.90
23685;DHT22;12020;51.384;6.908;2023-09-30T05:47:00;12.30;99.90
23685;DHT22;12020;51.384;6.908;2023-09-30T05:49:30;12.30;99.90
23685;DHT22;12020;51.384;6.908;2023-09-30T05:51:57;12.40;99.90
23685;DHT22;12020;51.384;6.908;2023-09-30T05:54:28;12.40;99.90
23685;DHT22;12020;51.384;6.908;2023-09-30T05:57:09;12.50;99.90
23685;DHT22;12020;51.384;6.908;2023-09-30T05:59:38;12.60;99.90
23685;DHT22;12020;51.384;6.908;2023-09-30T06:02:05;12.70;99.90
23685;DHT22;12020;51.384;6.908;2023-09-30T06:04:35;12.60;99.90
23685;DHT22;12020;51.384;6.908;2023-09-30T06:07:15;12.70;99.90
23685;DHT22;12020;51.384;6.908;2023-09-30T06:09:46;12.70;99.90
23685;DHT22;12020;51.384;6.908;2023-09-30T06:12:26;12.70;99.90
23685;DHT22;12020;51.384;6.908;2023-09-30T06:17:28;12.70;99.90
23685;DHT22;12020;51.384;6.908;2023-09-30T06:19:54;12.70;99.90
23685;DHT22;12020;51.384;6.908;2023-09-30T06:22:30;12.70;99.90
23685;DHT22;12020;51.384;6.908;2023-09-30T06:25:13;12.70;99.90
23685;DHT22;12020;51.384;6.908;2023-09-30T06:27:48;12.70;99.90
23685;DHT22;12020;51.384;6.908;2023-09-30T06:30:16;12.70;99.90
23685;DHT22;12020;51.384;6.908;2023-09-30T06:32:48;12.70;99.90
23685;DHT22;12020;51.384;6.908;2023-09-30T06:35:14;12.70;99.90
23685;DHT22;12020;51.384;6.908;2023-09-30T06:37:40;12.80;99.90
23685;DHT22;12020;51.384;6.908;2023-09-30T06:40:15;13.10;99.90
23685;DHT22;12020;51.384;6.908;2023-09-30T06:45:19;13.40;99.90
23685;DHT22;12020;51.384;6.908;2023-09-30T06:47:47;13.30;99.90
23685;DHT22;12020;51.384;6.908;2023-09-30T06:50:19;13.30;99.90
23685;DHT22;12020;51.384;6.908;2023-09-30T06:52:48;13.30;99.90
23685;DHT22;12020;51.384;6.908;2023-09-30T06:55:15;13.30;99.90
23685;DHT22;12020;51.384;6.908;2023-09-30T07:00:19;13.30;99.90
23685;DHT22;12020;51.384;6.908;2023-09-30T07:02:45;13.30;99.90
23685;DHT22;12020;51.384;6.908;2023-09-30T07:05:22;13.40;99.90
23685;DHT22;12020;51.384;6.908;2023-09-30T07:15:29;13.60;99.90
23685;DHT22;12020;51.384;6.908;2023-09-30T07:17:59;13.70;99.90
23685;DHT22;12020;51.384;6.908;2023-09-30T07:20:33;13.70;99.90
23685;DHT22;12020;51.384;6.908;2023-09-30T07:23:13;13.80;99.90
23685;DHT22;12020;51.384;6.908;2023-09-30T07:25:40;13.80;99.90
23685;DHT22;12020;51.384;6.908;2023-09-30T07:28:08;13.90;99.90
23685;DHT22;12020;51.384;6.908;2023-09-30T07:31:05;13.90;99.90
23685;DHT22;12020;51.384;6.908;2023-09-30T07:33:32;14.00;99.90
23685;DHT22;12020;51.384;6.908;2023-09-30T07:38:36;14.10;99.90
23685;DHT22;12020;51.384;6.908;2023-09-30T07:41:12;14.20;99.90
23685;DHT22;12020;51.384;6.908;2023-09-30T07:43:45;14.20;99.90
23685;DHT22;12020;51.384;6.908;2023-09-30T07:46:11;14.30;99.90
23685;DHT22;12020;51.384;6.908;2023-09-30T07:48:49;14.30;99.90
23685;DHT22;12020;51.384;6.908;2023-09-30T07:51:19;14.50;99.90
23685;DHT22;12020;51.384;6.908;2023-09-30T07:53:46;14.60;99.90
23685;DHT22;12020;51.384;6.908;2023-09-30T07:56:19;14.70;99.90
23685;DHT22;12020;51.384;6.908;2023-09-30T07:58:49;14.70;99.90
23685;DHT22;12020;51.384;6.908;2023-09-30T08:01:17;14.80;99.90
23685;DHT22;12020;51.384;6.908;2023-09-30T08:03:48;14.90;99.90
23685;DHT22;12020;51.384;6.908;2023-09-30T08:09:09;15.00;99.90
23685;DHT22;12020;51.384;6.908;2023-09-30T08:11:50;15.10;99.90
23685;DHT22;12020;51.384;6.908;2023-09-30T08:14:22;15.20;99.90
23685;DHT22;12020;51.384;6.908;2023-09-30T08:16:48;15.30;99.90
23685;DHT22;12020;51.384;6.908;2023-09-30T08:19:29;15.30;99.90
23685;DHT22;12020;51.384;6.908;2023-09-30T08:21:56;15.50;99.90
23685;DHT22;12020;51.384;6.908;2023-09-30T08:24:22;15.50;99.90
23685;DHT22;12020;51.384;6.908;2023-09-30T08:26:49;15.60;99.90
23685;DHT22;12020;51.384;6.908;2023-09-30T08:29:17;15.70;99.90
23685;DHT22;12020;51.384;6.908;2023-09-30T08:31:47;15.80;99.90
23685;DHT22;12020;51.384;6.908;2023-09-30T08:34:17;15.80;99.90
23685;DHT22;12020;51.384;6.908;2023-09-30T08:36:52;15.90;99.90
23685;DHT22;12020;51.384;6.908;2023-09-30T08:39:24;15.90;99.90
23685;DHT22;12020;51.384;6.908;2023-09-30T08:41:51;16.10;99.90
23685;DHT22;12020;51.384;6.908;2023-09-30T08:44:18;16.10;99.90
23685;DHT22;12020;51.384;6.908;2023-09-30T08:46:46;16.20;99.90
23685;DHT22;12020;51.384;6.908;2023-09-30T08:49:14;16.30;99.90
23685;DHT22;12020;51.384;6.908;2023-09-30T08:51:42;16.40;99.90
23685;DHT22;12020;51.384;6.908;2023-09-30T08:54:11;16.50;99.90
23685;DHT22;12020;51.384;6.908;2023-09-30T08:56:40;16.50;99.90
23685;DHT22;12020;51.384;6.908;2023-09-30T08:59:07;16.70;99.90
23685;DHT22;12020;51.384;6.908;2023-09-30T09:01:35;16.80;99.90
23685;DHT22;12020;51.384;6.908;2023-09-30T09:04:01;16.90;99.90
23685;DHT22;12020;51.384;6.908;2023-09-30T09:06:29;16.90;99.90
23685;DHT22;12020;51.384;6.908;2023-09-30T09:09:13;17.10;99.90
23685;DHT22;12020;51.384;6.908;2023-09-30T09:11:48;17.20;99.90
23685;DHT22;12020;51.384;6.908;2023-09-30T09:14:16;17.40;99.90
23685;DHT22;12020;51.384;6.908;2023-09-30T09:24:33;17.70;99.90
23685;DHT22;12020;51.384;6.908;2023-09-30T10:10:49;20.00;99.90
23685;DHT22;12020;51.384;6.908;2023-09-30T10:13:50;20.10;99.90
23685;DHT22;12020;51.384;6.908;2023-09-30T10:22:23;20.50;99.90
23685;DHT22;12020;51.384;6.908;2023-09-30T10:25:00;20.70;99.90
23685;DHT22;12020;51.384;6.908;2023-09-30T10:35:12;20.70;99.90
23685;DHT22;12020;51.384;6.908;2023-09-30T10:40:43;20.50;99.90
23685;DHT22;12020;51.384;6.908;2023-09-30T10:45:54;20.30;99.90
23685;DHT22;12020;51.384;6.908;2023-09-30T10:48:40;20.30;99.90
23685;DHT22;12020;51.384;6.908;2023-09-30T12:02:18;20.20;99.90
23685;DHT22;12020;51.384;6.908;2023-09-30T16:08:35;18.90;99.90
23685;DHT22;12020;51.384;6.908;2023-09-30T16:11:55;18.80;99.90
23685;DHT22;12020;51.384;6.908;2023-09-30T16:14:48;18.70;99.90
23685;DHT22;12020;51.384;6.908;2023-09-30T16:17:26;18.70;99.90
23685;DHT22;12020;51.384;6.908;2023-09-30T16:20:36;18.70;99.90
23685;DHT22;12020;51.384;6.908;2023-09-30T16:23:05;18.60;99.90
23685;DHT22;12020;51.384;6.908;2023-09-30T16:25:35;18.60;99.90
23685;DHT22;12020;51.384;6.908;2023-09-30T16:28:02;18.60;99.90
23685;DHT22;12020;51.384;6.908;2023-09-30T16:30:28;18.60;99.90
23685;DHT22;12020;51.384;6.908;2023-09-30T16:32:55;18.70;99.90
23685;DHT22;12020;51.384;6.908;2023-09-30T16:35:20;18.70;99.90
23685;DHT22;12020;51.384;6.908;2023-09-30T16:37:46;18.80;99.90
23685;DHT22;12020;51.384;6.908;2023-09-30T16:42:49;18.70;99.90
23685;DHT22;12020;51.384;6.908;2023-09-30T16:45:41;18.70;99.90
23685;DHT22;12020;51.384;6.908;2023-09-30T16:48:20;18.50;99.90
23685;DHT22;12020;51.384;6.908;2023-09-30T16:51:10;18.40;99.90
23685;DHT22;12020;51.384;6.908;2023-09-30T16:53:38;18.20;99.90
23685;DHT22;12020;51.384;6.908;2023-09-30T16:56:06;18.10;99.90
23685;DHT22;12020;51.384;6.908;2023-09-30T16:58:32;17.90;99.90
23685;DHT22;12020;51.384;6.908;2023-09-30T17:01:20;17.70;99.90
23685;DHT22;12020;51.384;6.908;2023-09-30T17:03:46;17.60;99.90
23685;DHT22;12020;51.384;6.908;2023-09-30T17:06:12;17.60;99.90
23685;DHT22;12020;51.384;6.908;2023-09-30T17:08:38;17.50;99.90
23685;DHT22;12020;51.384;6.908;2023-09-30T17:11:03;17.40;99.90
23685;DHT22;12020;51.384;6.908;2023-09-30T17:13:30;17.30;99.90
23685;DHT22;12020;51.384;6.908;2023-09-30T17:16:00;17.20;99.90
23685;DHT22;12020;51.384;6.908;2023-09-30T17:18:28;17.10;99.90
23685;DHT22;12020;51.384;6.908;2023-09-30T17:20:59;17.10;99.90
23685;DHT22;12020;51.384;6.908;2023-09-30T17:23:26;17.00;99.90
23685;DHT22;12020;51.384;6.908;2023-09-30T17:26:01;16.90;99.90
23685;DHT22;12020;51.384;6.908;2023-09-30T17:28:28;16.90;99.90
23685;DHT22;12020;51.384;6.908;2023-09-30T17:31:05;16.80;99.90
23685;DHT22;12020;51.384;6.908;2023-09-30T17:33:36;16.60;99.90
23685;DHT22;12020;51.384;6.908;2023-09-30T17:36:06;16.60;99.90
23685;DHT22;12020;51.384;6.908;2023-09-30T17:38:33;16.50;99.90
23685;DHT22;12020;51.384;6.908;2023-09-30T17:41:04;16.50;99.90
23685;DHT22;12020;51.384;6.908;2023-09-30T17:43:36;16.40;99.90
23685;DHT22;12020;51.384;6.908;2023-09-30T17:46:10;16.40;99.90
23685;DHT22;12020;51.384;6.908;2023-09-30T17:48:37;16.30;99.90
23685;DHT22;12020;51.384;6.908;2023-09-30T17:51:03;16.30;99.90
23685;DHT22;12020;51.384;6.908;2023-09-30T17:53:33;16.30;99.90
23685;DHT22;12020;51.384;6.908;2023-09-30T17:55:59;16.20;99.90
23685;DHT22;12020;51.384;6.908;2023-09-30T17:58:26;16.20;99.90
23685;DHT22;12020;51.384;6.908;2023-09-30T18:00:52;16.10;99.90
23685;DHT22;12020;51.384;6.908;2023-09-30T18:03:18;16.10;99.90
23685;DHT22;12020;51.384;6.908;2023-09-30T18:05:43;16.00;99.90
23685;DHT22;12020;51.384;6.908;2023-09-30T18:08:09;16.00;99.90
23685;DHT22;12020;51.384;6.908;2023-09-30T18:10:35;15.90;99.90
23685;DHT22;12020;51.384;6.908;2023-09-30T18:13:01;15.90;99.90
23685;DHT22;12020;51.384;6.908;2023-09-30T18:15:27;15.80;99.90
23685;DHT22;12020;51.384;6.908;2023-09-30T18:17:54;15.70;99.90
23685;DHT22;12020;51.384;6.908;2023-09-30T18:20:20;15.70;99.90
23685;DHT22;12020;51.384;6.908;2023-09-30T18:22:46;15.60;99.90
23685;DHT22;12020;51.384;6.908;2023-09-30T18:25:12;15.60;99.90
23685;DHT22;12020;51.384;6.908;2023-09-30T18:27:37;15.50;99.90
23685;DHT22;12020;51.384;6.908;2023-09-30T18:30:04;15.50;99.90
23685;DHT22;12020;51.384;6.908;2023-09-30T18:32:30;15.50;99.90
23685;DHT22;12020;51.384;6.908;2023-09-30T18:34:56;15.40;99.90
23685;DHT22;12020;51.384;6.908;2023-09-30T18:37:22;15.30;99.90
23685;DHT22;12020;51.384;6.908;2023-09-30T18:39:47;15.30;99.90
23685;DHT22;12020;51.384;6.908;2023-09-30T18:42:14;15.30;99.90
23685;DHT22;12020;51.384;6.908;2023-09-30T18:44:40;15.20;99.90
23685;DHT22;12020;51.384;6.908;2023-09-30T18:47:05;15.20;99.90
23685;DHT22;12020;51.384;6.908;2023-09-30T18:49:32;15.10;99.90
23685;DHT22;12020;51.384;6.908;2023-09-30T18:51:58;15.10;99.90
23685;DHT22;12020;51.384;6.908;2023-09-30T18:54:29;15.10;99.90
23685;DHT22;12020;51.384;6.908;2023-09-30T18:56:55;15.00;99.90
23685;DHT22;12020;51.384;6.908;2023-09-30T18:59:22;15.00;99.90
23685;DHT22;12020;51.384;6.908;2023-09-30T19:01:51;15.00;99.90
23685;DHT22;12020;51.384;6.908;2023-09-30T19:04:18;15.00;99.90
23685;DHT22;12020;51.384;6.908;2023-09-30T19:06:44;14.90;99.90
23685;DHT22;12020;51.384;6.908;2023-09-30T19:09:13;14.90;99.90
23685;DHT22;12020;51.384;6.908;2023-09-30T19:11:40;14.80;99.90
23685;DHT22;12020;51.384;6.908;2023-09-30T19:14:05;14.80;99.90
23685;DHT22;12020;51.384;6.908;2023-09-30T19:16:33;14.80;99.90
23685;DHT22;12020;51.384;6.908;2023-09-30T19:18:59;14.70;99.90
23685;DHT22;12020;51.384;6.908;2023-09-30T19:21:26;14.70;99.90
23685;DHT22;12020;51.384;6.908;2023-09-30T19:23:51;14.70;99.90
23685;DHT22;12020;51.384;6.908;2023-09-30T19:26:17;14.70;99.90
23685;DHT22;12020;51.384;6.908;2023-09-30T19:28:43;14.70;99.90
23685;DHT22;12020;51.384;6.908;2023-09-30T19:31:13;14.70;99.90
23685;DHT22;12020;51.384;6.908;2023-09-30T19:33:39;14.70;99.90
23685;DHT22;12020;51.384;6.908;2023-09-30T19:36:09;14.70;99.90
23685;DHT22;12020;51.384;6.908;2023-09-30T19:38:35;14.70;99.90
23685;DHT22;12020;51.384;6.908;2023-09-30T19:41:02;14.80;99.90
23685;DHT22;12020;51.384;6.908;2023-09-30T19:43:27;14.80;99.90
23685;DHT22;12020;51.384;6.908;2023-09-30T19:46:12;14.70;99.90
23685;DHT22;12020;51.384;6.908;2023-09-30T19:48:39;14.70;99.90
23685;DHT22;12020;51.384;6.908;2023-09-30T19:51:08;14.80;99.90
23685;DHT22;12020;51.384;6.908;2023-09-30T19:53:34;14.80;99.90
23685;DHT22;12020;51.384;6.908;2023-09-30T19:56:07;14.80;99.90
23685;DHT22;12020;51.384;6.908;2023-09-30T19:58:36;14.80;99.90
23685;DHT22;12020;51.384;6.908;2023-09-30T20:01:08;14.70;99.90
23685;DHT22;12020;51.384;6.908;2023-09-30T20:03:40;14.70;99.90
23685;DHT22;12020;51.384;6.908;2023-09-30T20:06:34;14.60;99.90
23685;DHT22;12020;51.384;6.908;2023-09-30T20:09:00;14.60;99.90
23685;DHT22;12020;51.384;6.908;2023-09-30T20:11:26;14.50;99.90
23685;DHT22;12020;51.384;6.908;2023-09-30T20:13:58;14.50;99.90
23685;DHT22;12020;51.384;6.908;2023-09-30T20:16:25;14.50;99.90
23685;DHT22;12020;51.384;6.908;2023-09-30T20:18:51;14.50;99.90
23685;DHT22;12020;51.384;6.908;2023-09-30T20:21:17;14.40;99.90
23685;DHT22;12020;51.384;6.908;2023-09-30T20:23:43;14.40;99.90
23685;DHT22;12020;51.384;6.908;2023-09-30T20:26:11;14.40;99.90
23685;DHT22;12020;51.384;6.908;2023-09-30T20:28:39;14.40;99.90
23685;DHT22;12020;51.384;6.908;2023-09-30T20:31:05;14.40;99.90
23685;DHT22;12020;51.384;6.908;2023-09-30T20:33:30;14.40;99.90
23685;DHT22;12020;51.384;6.908;2023-09-30T20:35:56;14.40;99.90
23685;DHT22;12020;51.384;6.908;2023-09-30T20:38:22;14.40;99.90
23685;DHT22;12020;51.384;6.908;2023-09-30T20:40:47;14.40;99.90
23685;DHT22;12020;51.384;6.908;2023-09-30T20:43:14;14.40;99.90
23685;DHT22;12020;51.384;6.908;2023-09-30T20:45:40;14.40;99.90
23685;DHT22;12020;51.384;6.908;2023-09-30T20:48:06;14.40;99.90
23685;DHT22;12020;51.384;6.908;2023-09-30T20:50:33;14.40;99.90
23685;DHT22;12020;51.384;6.908;2023-09-30T20:52:59;14.40;99.90
23685;DHT22;12020;51.384;6.908;2023-09-30T20:55:25;14.40;99.90
23685;DHT22;12020;51.384;6.908;2023-09-30T20:57:55;14.40;99.90
23685;DHT22;12020;51.384;6.908;2023-09-30T21:00:22;14.40;99.90
23685;DHT22;12020;51.384;6.908;2023-09-30T21:02:49;14.40;99.90
23685;DHT22;12020;51.384;6.908;2023-09-30T21:05:15;14.40;99.90
23685;DHT22;12020;51.384;6.908;2023-09-30T21:07:40;14.30;99.90
23685;DHT22;12020;51.384;6.908;2023-09-30T21:10:06;14.30;99.90
23685;DHT22;12020;51.384;6.908;2023-09-30T21:12:32;14.20;99.90
23685;DHT22;12020;51.384;6.908;2023-09-30T21:14:58;14.20;99.90
23685;DHT22;12020;51.384;6.908;2023-09-30T21:17:25;14.10;99.90
23685;DHT22;12020;51.384;6.908;2023-09-30T21:19:51;14.10;99.90
23685;DHT22;12020;51.384;6.908;2023-09-30T21:22:17;14.10;99.90
23685;DHT22;12020;51.384;6.908;2023-09-30T21:24:43;14.00;99.90
23685;DHT22;12020;51.384;6.908;2023-09-30T21:27:09;14.00;99.90
23685;DHT22;12020;51.384;6.908;2023-09-30T21:29:35;13.90;99.90
23685;DHT22;12020;51.384;6.908;2023-09-30T21:32:01;13.90;99.90
23685;DHT22;12020;51.384;6.908;2023-09-30T21:34:27;13.80;99.90
23685;DHT22;12020;51.384;6.908;2023-09-30T21:36:53;13.80;99.90
23685;DHT22;12020;51.384;6.908;2023-09-30T21:39:18;13.70;99.90
23685;DHT22;12020;51.384;6.908;2023-09-30T21:41:44;13.70;99.90
23685;DHT22;12020;51.384;6.908;2023-09-30T21:44:10;13.60;99.90
23685;DHT22;12020;51.384;6.908;2023-09-30T21:46:37;13.70;99.90
23685;DHT22;12020;51.384;6.908;2023-09-30T21:49:03;13.60;99.90
23685;DHT22;12020;51.384;6.908;2023-09-30T21:51:29;13.60;99.90
23685;DHT22;12020;51.384;6.908;2023-09-30T21:53:54;13.60;99.90
23685;DHT22;12020;51.384;6.908;2023-09-30T21:56:20;13.60;99.90
23685;DHT22;12020;51.384;6.908;2023-09-30T21:58:46;13.70;99.90
23685;DHT22;12020;51.384;6.908;2023-09-30T22:01:12;13.70;99.90
23685;DHT22;12020;51.384;6.908;2023-09-30T22:03:41;13.60;99.90
23685;DHT22;12020;51.384;6.908;2023-09-30T22:06:08;13.60;99.90
23685;DHT22;12020;51.384;6.908;2023-09-30T22:08:33;13.50;99.90
23685;DHT22;12020;51.384;6.908;2023-09-30T22:10:59;13.50;99.90
23685;DHT22;12020;51.384;6.908;2023-09-30T22:13:25;13.40;99.90
23685;DHT22;12020;51.384;6.908;2023-09-30T22:15:52;13.40;99.90
23685;DHT22;12020;51.384;6.908;2023-09-30T22:18:18;13.40;99.90
23685;DHT22;12020;51.384;6.908;2023-09-30T22:20:45;13.40;99.90
23685;DHT22;12020;51.384;6.908;2023-09-30T22:23:30;13.40;99.90
23685;DHT22;12020;51.384;6.908;2023-09-30T22:25:56;13.30;99.90
23685;DHT22;12020;51.384;6.908;2023-09-30T22:28:23;13.30;99.90
23685;DHT22;12020;51.384;6.908;2023-09-30T22:30:49;13.30;99.90
23685;DHT22;12020;51.384;6.908;2023-09-30T22:33:15;13.30;99.90
23685;DHT22;12020;51.384;6.908;2023-09-30T22:35:42;13.20;99.90